Esplanade, New York
Current Conditions -  °F | °C
As of 1:51 PM on Sunday 23 Nov 2014 (Local Time) from KLGA Reporting Station
Broken Clouds Broken Clouds  
Wind Chill: 55°   Ceiling: 20000
Heat Index: 55°   Visibility: 10mi
Dew Point: 25°   Wind: 10mph
Humidity: 31%   Direction: 200°SSW
Pressure: 30.14"   Gusts: NA
Location:  40.8683°N, 73.8469°W
Report Text: KLGA 231851Z 20009KT 10SM FEW085 SCT110 SCT160 BKN200 BKN250 13/M04 A3014 RMK AO2 SLP206 ACSL N T01281039
Loading
Personal Weather Stations






























Interactive Weather Map New forecast layout! Learn more

10-Day Weather Forecast

Advertisements
Track Severe Weather on mobile